sensor_id;sensor_type;location;lat;lon;timestamp;P1;durP1;ratioP1;P2;durP2;ratioP2
15681;SDS011;7941;50.966;6.978;2022-07-23T00:00:34;30.20;;;27.30;;
15681;SDS011;7941;50.966;6.978;2022-07-23T00:03:00;30.03;;;26.83;;
15681;SDS011;7941;50.966;6.978;2022-07-23T00:05:26;30.30;;;27.50;;
15681;SDS011;7941;50.966;6.978;2022-07-23T00:07:52;29.07;;;26.40;;
15681;SDS011;7941;50.966;6.978;2022-07-23T00:10:18;28.33;;;25.43;;
15681;SDS011;7941;50.966;6.978;2022-07-23T00:12:44;26.00;;;23.30;;
15681;SDS011;7941;50.966;6.978;2022-07-23T00:15:10;24.97;;;21.80;;
15681;SDS011;7941;50.966;6.978;2022-07-23T00:17:36;25.83;;;23.10;;
15681;SDS011;7941;50.966;6.978;2022-07-23T00:20:02;32.30;;;26.27;;
15681;SDS011;7941;50.966;6.978;2022-07-23T00:22:29;84.47;;;35.53;;
15681;SDS011;7941;50.966;6.978;2022-07-23T00:24:55;65.43;;;35.70;;
15681;SDS011;7941;50.966;6.978;2022-07-23T00:27:22;41.20;;;36.47;;
15681;SDS011;7941;50.966;6.978;2022-07-23T00:29:48;41.43;;;35.23;;
15681;SDS011;7941;50.966;6.978;2022-07-23T00:32:14;37.60;;;32.70;;
15681;SDS011;7941;50.966;6.978;2022-07-23T00:34:40;41.23;;;32.67;;
15681;SDS011;7941;50.966;6.978;2022-07-23T00:37:06;33.87;;;29.97;;
15681;SDS011;7941;50.966;6.978;2022-07-23T00:39:32;35.03;;;30.63;;
15681;SDS011;7941;50.966;6.978;2022-07-23T00:41:58;36.10;;;30.87;;
15681;SDS011;7941;50.966;6.978;2022-07-23T00:44:25;37.00;;;32.43;;
15681;SDS011;7941;50.966;6.978;2022-07-23T00:46:52;44.03;;;36.67;;
15681;SDS011;7941;50.966;6.978;2022-07-23T00:49:28;46.87;;;37.47;;
15681;SDS011;7941;50.966;6.978;2022-07-23T00:51:55;44.30;;;39.43;;
15681;SDS011;7941;50.966;6.978;2022-07-23T00:54:22;49.73;;;39.17;;
15681;SDS011;7941;50.966;6.978;2022-07-23T00:56:49;46.40;;;39.53;;
15681;SDS011;7941;50.966;6.978;2022-07-23T00:59:15;48.20;;;39.87;;
15681;SDS011;7941;50.966;6.978;2022-07-23T01:01:41;50.90;;;42.03;;
15681;SDS011;7941;50.966;6.978;2022-07-23T01:04:09;53.67;;;44.40;;
15681;SDS011;7941;50.966;6.978;2022-07-23T01:06:37;51.00;;;43.23;;
15681;SDS011;7941;50.966;6.978;2022-07-23T01:09:04;51.40;;;44.20;;
15681;SDS011;7941;50.966;6.978;2022-07-23T01:13:56;41.97;;;34.90;;
15681;SDS011;7941;50.966;6.978;2022-07-23T01:16:22;40.10;;;34.03;;
15681;SDS011;7941;50.966;6.978;2022-07-23T01:18:48;39.07;;;34.40;;
15681;SDS011;7941;50.966;6.978;2022-07-23T01:21:14;35.60;;;31.63;;
15681;SDS011;7941;50.966;6.978;2022-07-23T01:23:43;38.60;;;33.77;;
15681;SDS011;7941;50.966;6.978;2022-07-23T01:26:09;43.47;;;35.67;;
15681;SDS011;7941;50.966;6.978;2022-07-23T01:28:35;95.13;;;38.13;;
15681;SDS011;7941;50.966;6.978;2022-07-23T01:31:02;44.60;;;38.17;;
15681;SDS011;7941;50.966;6.978;2022-07-23T01:33:28;53.17;;;39.77;;
15681;SDS011;7941;50.966;6.978;2022-07-23T01:35:54;53.30;;;41.20;;
15681;SDS011;7941;50.966;6.978;2022-07-23T02:02:39;48.87;;;39.13;;
15681;SDS011;7941;50.966;6.978;2022-07-23T02:05:06;48.83;;;42.17;;
15681;SDS011;7941;50.966;6.978;2022-07-23T02:09:58;75.78;;;60.30;;
15681;SDS011;7941;50.966;6.978;2022-07-23T02:12:24;64.10;;;49.77;;
15681;SDS011;7941;50.966;6.978;2022-07-23T02:14:50;63.27;;;47.27;;
15681;SDS011;7941;50.966;6.978;2022-07-23T02:17:16;61.47;;;48.23;;
15681;SDS011;7941;50.966;6.978;2022-07-23T02:27:00;79.47;;;60.83;;
15681;SDS011;7941;50.966;6.978;2022-07-23T02:31:52;59.83;;;46.27;;
15681;SDS011;7941;50.966;6.978;2022-07-23T02:34:18;64.47;;;47.60;;
15681;SDS011;7941;50.966;6.978;2022-07-23T02:36:44;56.33;;;46.37;;
15681;SDS011;7941;50.966;6.978;2022-07-23T02:39:10;58.23;;;45.53;;
15681;SDS011;7941;50.966;6.978;2022-07-23T02:41:36;52.37;;;44.47;;
15681;SDS011;7941;50.966;6.978;2022-07-23T02:44:03;51.67;;;42.57;;
15681;SDS011;7941;50.966;6.978;2022-07-23T02:46:29;50.63;;;42.13;;
15681;SDS011;7941;50.966;6.978;2022-07-23T02:48:55;52.30;;;41.80;;
15681;SDS011;7941;50.966;6.978;2022-07-23T02:51:22;53.20;;;43.43;;
15681;SDS011;7941;50.966;6.978;2022-07-23T02:53:48;56.50;;;43.30;;
15681;SDS011;7941;50.966;6.978;2022-07-23T02:56:14;61.93;;;44.60;;
15681;SDS011;7941;50.966;6.978;2022-07-23T02:58:40;66.73;;;47.27;;
15681;SDS011;7941;50.966;6.978;2022-07-23T03:05:58;68.93;;;48.53;;
15681;SDS011;7941;50.966;6.978;2022-07-23T03:08:24;75.87;;;51.77;;
15681;SDS011;7941;50.966;6.978;2022-07-23T03:10:50;74.77;;;49.97;;
15681;SDS011;7941;50.966;6.978;2022-07-23T03:13:16;80.87;;;53.43;;
15681;SDS011;7941;50.966;6.978;2022-07-23T03:15:42;84.73;;;54.57;;
15681;SDS011;7941;50.966;6.978;2022-07-23T03:18:08;82.93;;;55.03;;
15681;SDS011;7941;50.966;6.978;2022-07-23T03:20:34;97.37;;;61.10;;
15681;SDS011;7941;50.966;6.978;2022-07-23T03:23:00;101.93;;;62.07;;
15681;SDS011;7941;50.966;6.978;2022-07-23T03:25:26;100.07;;;62.00;;
15681;SDS011;7941;50.966;6.978;2022-07-23T03:27:52;99.90;;;63.10;;
15681;SDS011;7941;50.966;6.978;2022-07-23T03:30:19;96.53;;;62.23;;
15681;SDS011;7941;50.966;6.978;2022-07-23T03:32:45;111.37;;;65.10;;
15681;SDS011;7941;50.966;6.978;2022-07-23T03:35:11;109.43;;;66.77;;
15681;SDS011;7941;50.966;6.978;2022-07-23T03:37:37;114.67;;;67.40;;
15681;SDS011;7941;50.966;6.978;2022-07-23T03:40:03;122.47;;;70.60;;
15681;SDS011;7941;50.966;6.978;2022-07-23T03:42:30;123.73;;;72.37;;
15681;SDS011;7941;50.966;6.978;2022-07-23T03:44:56;127.00;;;71.90;;
15681;SDS011;7941;50.966;6.978;2022-07-23T03:47:22;124.43;;;72.03;;
15681;SDS011;7941;50.966;6.978;2022-07-23T03:49:48;123.20;;;71.27;;
15681;SDS011;7941;50.966;6.978;2022-07-23T03:52:14;124.27;;;71.70;;
15681;SDS011;7941;50.966;6.978;2022-07-23T03:54:40;118.17;;;67.23;;
15681;SDS011;7941;50.966;6.978;2022-07-23T03:57:06;136.60;;;73.40;;
15681;SDS011;7941;50.966;6.978;2022-07-23T03:59:33;127.97;;;72.57;;
15681;SDS011;7941;50.966;6.978;2022-07-23T04:01:59;134.13;;;70.60;;
15681;SDS011;7941;50.966;6.978;2022-07-23T04:04:25;114.50;;;64.67;;
15681;SDS011;7941;50.966;6.978;2022-07-23T04:06:51;127.43;;;72.10;;
15681;SDS011;7941;50.966;6.978;2022-07-23T04:09:18;132.03;;;74.27;;
15681;SDS011;7941;50.966;6.978;2022-07-23T04:11:44;127.27;;;73.13;;
15681;SDS011;7941;50.966;6.978;2022-07-23T04:14:10;136.90;;;74.53;;
15681;SDS011;7941;50.966;6.978;2022-07-23T04:16:36;132.70;;;72.83;;
15681;SDS011;7941;50.966;6.978;2022-07-23T04:19:02;129.80;;;72.90;;
15681;SDS011;7941;50.966;6.978;2022-07-23T04:21:29;129.90;;;71.20;;
15681;SDS011;7941;50.966;6.978;2022-07-23T04:23:55;142.77;;;73.20;;
15681;SDS011;7941;50.966;6.978;2022-07-23T04:26:21;132.10;;;72.63;;
15681;SDS011;7941;50.966;6.978;2022-07-23T04:28:47;129.93;;;71.50;;
15681;SDS011;7941;50.966;6.978;2022-07-23T04:31:13;133.30;;;72.50;;
15681;SDS011;7941;50.966;6.978;2022-07-23T04:33:39;125.70;;;73.27;;
15681;SDS011;7941;50.966;6.978;2022-07-23T04:36:05;140.07;;;75.30;;
15681;SDS011;7941;50.966;6.978;2022-07-23T04:38:32;138.10;;;76.80;;
15681;SDS011;7941;50.966;6.978;2022-07-23T04:40:58;141.37;;;75.70;;
15681;SDS011;7941;50.966;6.978;2022-07-23T04:43:24;146.13;;;75.23;;
15681;SDS011;7941;50.966;6.978;2022-07-23T04:45:52;150.17;;;79.97;;
15681;SDS011;7941;50.966;6.978;2022-07-23T04:48:18;153.33;;;80.80;;
15681;SDS011;7941;50.966;6.978;2022-07-23T04:50:44;150.53;;;81.53;;
15681;SDS011;7941;50.966;6.978;2022-07-23T04:53:10;154.03;;;82.47;;
15681;SDS011;7941;50.966;6.978;2022-07-23T04:55:36;160.40;;;83.70;;
15681;SDS011;7941;50.966;6.978;2022-07-23T04:58:02;165.13;;;84.60;;
15681;SDS011;7941;50.966;6.978;2022-07-23T05:00:28;168.73;;;86.33;;
15681;SDS011;7941;50.966;6.978;2022-07-23T05:02:54;161.70;;;87.60;;
15681;SDS011;7941;50.966;6.978;2022-07-23T05:05:20;153.43;;;80.77;;
15681;SDS011;7941;50.966;6.978;2022-07-23T05:07:46;159.33;;;84.70;;
15681;SDS011;7941;50.966;6.978;2022-07-23T05:10:12;167.57;;;88.10;;
15681;SDS011;7941;50.966;6.978;2022-07-23T05:12:38;163.40;;;85.70;;
15681;SDS011;7941;50.966;6.978;2022-07-23T05:15:04;161.27;;;83.90;;
15681;SDS011;7941;50.966;6.978;2022-07-23T05:17:30;164.43;;;85.93;;
15681;SDS011;7941;50.966;6.978;2022-07-23T05:19:57;164.97;;;86.37;;
15681;SDS011;7941;50.966;6.978;2022-07-23T05:22:23;148.60;;;82.80;;
15681;SDS011;7941;50.966;6.978;2022-07-23T05:24:49;163.50;;;84.33;;
15681;SDS011;7941;50.966;6.978;2022-07-23T05:27:15;150.13;;;81.00;;
15681;SDS011;7941;50.966;6.978;2022-07-23T05:29:41;151.17;;;80.40;;
15681;SDS011;7941;50.966;6.978;2022-07-23T05:32:07;151.33;;;81.77;;
15681;SDS011;7941;50.966;6.978;2022-07-23T05:34:33;133.00;;;78.33;;
15681;SDS011;7941;50.966;6.978;2022-07-23T05:36:59;143.27;;;79.43;;
15681;SDS011;7941;50.966;6.978;2022-07-23T05:39:26;145.20;;;80.00;;
15681;SDS011;7941;50.966;6.978;2022-07-23T05:41:52;140.37;;;78.00;;
15681;SDS011;7941;50.966;6.978;2022-07-23T05:44:18;147.53;;;80.47;;
15681;SDS011;7941;50.966;6.978;2022-07-23T05:46:44;136.20;;;75.33;;
15681;SDS011;7941;50.966;6.978;2022-07-23T05:49:10;131.63;;;77.57;;
15681;SDS011;7941;50.966;6.978;2022-07-23T05:51:36;126.10;;;73.47;;
15681;SDS011;7941;50.966;6.978;2022-07-23T05:54:02;111.33;;;68.70;;
15681;SDS011;7941;50.966;6.978;2022-07-23T05:56:28;111.43;;;69.90;;
15681;SDS011;7941;50.966;6.978;2022-07-23T05:58:54;108.83;;;67.90;;
15681;SDS011;7941;50.966;6.978;2022-07-23T06:01:20;107.27;;;67.20;;
15681;SDS011;7941;50.966;6.978;2022-07-23T06:03:46;98.93;;;66.47;;
15681;SDS011;7941;50.966;6.978;2022-07-23T06:06:12;97.13;;;62.77;;
15681;SDS011;7941;50.966;6.978;2022-07-23T06:08:38;90.83;;;65.17;;
15681;SDS011;7941;50.966;6.978;2022-07-23T06:11:05;85.70;;;61.77;;
15681;SDS011;7941;50.966;6.978;2022-07-23T06:13:31;80.60;;;60.37;;
15681;SDS011;7941;50.966;6.978;2022-07-23T06:15:57;75.87;;;56.60;;
15681;SDS011;7941;50.966;6.978;2022-07-23T06:18:23;80.70;;;59.17;;
15681;SDS011;7941;50.966;6.978;2022-07-23T06:20:50;85.73;;;58.00;;
15681;SDS011;7941;50.966;6.978;2022-07-23T06:23:16;75.73;;;59.30;;
15681;SDS011;7941;50.966;6.978;2022-07-23T06:25:42;75.37;;;60.03;;
15681;SDS011;7941;50.966;6.978;2022-07-23T06:28:08;77.43;;;54.93;;
15681;SDS011;7941;50.966;6.978;2022-07-23T06:30:34;64.60;;;54.13;;
15681;SDS011;7941;50.966;6.978;2022-07-23T06:33:00;67.60;;;54.10;;
15681;SDS011;7941;50.966;6.978;2022-07-23T06:35:26;61.70;;;52.03;;
15681;SDS011;7941;50.966;6.978;2022-07-23T06:37:52;60.00;;;48.40;;
15681;SDS011;7941;50.966;6.978;2022-07-23T06:40:18;59.10;;;49.00;;
15681;SDS011;7941;50.966;6.978;2022-07-23T06:42:45;60.13;;;47.30;;
15681;SDS011;7941;50.966;6.978;2022-07-23T06:45:11;62.90;;;49.40;;
15681;SDS011;7941;50.966;6.978;2022-07-23T06:47:37;57.30;;;49.67;;
15681;SDS011;7941;50.966;6.978;2022-07-23T06:50:05;54.67;;;48.00;;
15681;SDS011;7941;50.966;6.978;2022-07-23T06:52:31;52.97;;;47.33;;
15681;SDS011;7941;50.966;6.978;2022-07-23T06:54:57;53.17;;;45.43;;
15681;SDS011;7941;50.966;6.978;2022-07-23T06:57:23;51.90;;;43.33;;
15681;SDS011;7941;50.966;6.978;2022-07-23T06:59:50;49.80;;;43.80;;
15681;SDS011;7941;50.966;6.978;2022-07-23T07:02:16;47.30;;;42.10;;
15681;SDS011;7941;50.966;6.978;2022-07-23T07:04:43;43.73;;;38.87;;
15681;SDS011;7941;50.966;6.978;2022-07-23T07:07:09;38.50;;;34.47;;
15681;SDS011;7941;50.966;6.978;2022-07-23T07:09:35;37.93;;;32.20;;
15681;SDS011;7941;50.966;6.978;2022-07-23T07:12:01;33.60;;;28.87;;
15681;SDS011;7941;50.966;6.978;2022-07-23T07:14:27;29.47;;;26.30;;
15681;SDS011;7941;50.966;6.978;2022-07-23T07:16:53;26.17;;;23.37;;
15681;SDS011;7941;50.966;6.978;2022-07-23T07:19:19;29.70;;;24.27;;
15681;SDS011;7941;50.966;6.978;2022-07-23T07:21:45;28.17;;;25.20;;
15681;SDS011;7941;50.966;6.978;2022-07-23T07:24:11;29.10;;;24.33;;
15681;SDS011;7941;50.966;6.978;2022-07-23T07:26:37;32.13;;;27.67;;
15681;SDS011;7941;50.966;6.978;2022-07-23T07:29:04;29.37;;;25.77;;
15681;SDS011;7941;50.966;6.978;2022-07-23T07:31:30;31.30;;;28.20;;
15681;SDS011;7941;50.966;6.978;2022-07-23T07:33:57;31.43;;;28.30;;
15681;SDS011;7941;50.966;6.978;2022-07-23T07:36:23;32.30;;;28.93;;
15681;SDS011;7941;50.966;6.978;2022-07-23T07:38:50;32.28;;;29.05;;
15681;SDS011;7941;50.966;6.978;2022-07-23T07:41:16;31.53;;;28.20;;
15681;SDS011;7941;50.966;6.978;2022-07-23T07:43:42;30.27;;;27.27;;
15681;SDS011;7941;50.966;6.978;2022-07-23T07:46:08;29.33;;;26.53;;
15681;SDS011;7941;50.966;6.978;2022-07-23T07:48:35;33.23;;;29.63;;
15681;SDS011;7941;50.966;6.978;2022-07-23T07:51:03;31.40;;;28.40;;
15681;SDS011;7941;50.966;6.978;2022-07-23T07:53:29;30.00;;;27.03;;
15681;SDS011;7941;50.966;6.978;2022-07-23T07:55:55;26.40;;;23.67;;
15681;SDS011;7941;50.966;6.978;2022-07-23T07:58:21;26.50;;;24.00;;
15681;SDS011;7941;50.966;6.978;2022-07-23T08:00:47;28.90;;;25.83;;
15681;SDS011;7941;50.966;6.978;2022-07-23T08:03:13;28.97;;;26.10;;
15681;SDS011;7941;50.966;6.978;2022-07-23T08:05:39;26.13;;;23.47;;
15681;SDS011;7941;50.966;6.978;2022-07-23T08:08:05;28.67;;;25.77;;
15681;SDS011;7941;50.966;6.978;2022-07-23T08:10:34;30.63;;;27.43;;
15681;SDS011;7941;50.966;6.978;2022-07-23T08:13:00;30.60;;;27.53;;
15681;SDS011;7941;50.966;6.978;2022-07-23T08:15:28;24.47;;;22.07;;
15681;SDS011;7941;50.966;6.978;2022-07-23T08:17:54;29.53;;;26.33;;
15681;SDS011;7941;50.966;6.978;2022-07-23T08:20:21;27.23;;;24.53;;
15681;SDS011;7941;50.966;6.978;2022-07-23T08:22:57;27.50;;;25.00;;
15681;SDS011;7941;50.966;6.978;2022-07-23T08:25:28;26.77;;;23.87;;
15681;SDS011;7941;50.966;6.978;2022-07-23T08:27:54;24.47;;;22.10;;
15681;SDS011;7941;50.966;6.978;2022-07-23T08:30:20;23.50;;;21.07;;
15681;SDS011;7941;50.966;6.978;2022-07-23T08:32:48;21.87;;;19.80;;
15681;SDS011;7941;50.966;6.978;2022-07-23T08:35:14;21.37;;;19.37;;
15681;SDS011;7941;50.966;6.978;2022-07-23T08:37:40;22.50;;;18.93;;
15681;SDS011;7941;50.966;6.978;2022-07-23T08:40:07;22.40;;;20.23;;
15681;SDS011;7941;50.966;6.978;2022-07-23T08:42:33;23.57;;;21.33;;
15681;SDS011;7941;50.966;6.978;2022-07-23T08:45:00;23.17;;;21.00;;
15681;SDS011;7941;50.966;6.978;2022-07-23T08:47:27;22.67;;;20.47;;
15681;SDS011;7941;50.966;6.978;2022-07-23T08:49:53;21.40;;;19.20;;
15681;SDS011;7941;50.966;6.978;2022-07-23T08:52:20;20.97;;;17.73;;
15681;SDS011;7941;50.966;6.978;2022-07-23T08:54:46;19.27;;;17.43;;
15681;SDS011;7941;50.966;6.978;2022-07-23T08:57:13;19.90;;;17.90;;
15681;SDS011;7941;50.966;6.978;2022-07-23T08:59:40;19.67;;;17.77;;
15681;SDS011;7941;50.966;6.978;2022-07-23T09:02:06;17.63;;;15.97;;
15681;SDS011;7941;50.966;6.978;2022-07-23T09:04:32;15.93;;;14.57;;
15681;SDS011;7941;50.966;6.978;2022-07-23T09:06:58;14.27;;;12.87;;
15681;SDS011;7941;50.966;6.978;2022-07-23T09:09:25;15.47;;;13.90;;
15681;SDS011;7941;50.966;6.978;2022-07-23T09:12:08;17.87;;;15.83;;
15681;SDS011;7941;50.966;6.978;2022-07-23T09:14:41;16.53;;;14.93;;
15681;SDS011;7941;50.966;6.978;2022-07-23T09:17:11;14.23;;;13.07;;
15681;SDS011;7941;50.966;6.978;2022-07-23T09:19:37;14.20;;;12.90;;
15681;SDS011;7941;50.966;6.978;2022-07-23T09:25:04;13.63;;;12.33;;
15681;SDS011;7941;50.966;6.978;2022-07-23T09:27:50;13.60;;;12.40;;
15681;SDS011;7941;50.966;6.978;2022-07-23T09:30:23;14.77;;;13.37;;
15681;SDS011;7941;50.966;6.978;2022-07-23T09:33:09;14.57;;;13.27;;
15681;SDS011;7941;50.966;6.978;2022-07-23T09:38:10;12.40;;;11.23;;
15681;SDS011;7941;50.966;6.978;2022-07-23T09:40:36;13.00;;;11.80;;
15681;SDS011;7941;50.966;6.978;2022-07-23T09:43:03;14.10;;;12.60;;
15681;SDS011;7941;50.966;6.978;2022-07-23T09:45:29;14.73;;;11.83;;
15681;SDS011;7941;50.966;6.978;2022-07-23T09:48:14;13.27;;;12.00;;
15681;SDS011;7941;50.966;6.978;2022-07-23T09:50:42;14.53;;;13.13;;
15681;SDS011;7941;50.966;6.978;2022-07-23T09:53:08;14.30;;;12.90;;
15681;SDS011;7941;50.966;6.978;2022-07-23T09:55:35;12.77;;;11.57;;
15681;SDS011;7941;50.966;6.978;2022-07-23T09:58:02;14.63;;;13.23;;
15681;SDS011;7941;50.966;6.978;2022-07-23T10:00:29;14.20;;;12.60;;
15681;SDS011;7941;50.966;6.978;2022-07-23T10:02:57;12.57;;;11.37;;
15681;SDS011;7941;50.966;6.978;2022-07-23T10:05:24;12.10;;;11.10;;
15681;SDS011;7941;50.966;6.978;2022-07-23T10:07:50;15.10;;;13.60;;
15681;SDS011;7941;50.966;6.978;2022-07-23T10:10:17;13.23;;;11.40;;
15681;SDS011;7941;50.966;6.978;2022-07-23T10:12:44;10.67;;;9.57;;
15681;SDS011;7941;50.966;6.978;2022-07-23T10:15:14;12.43;;;10.57;;
15681;SDS011;7941;50.966;6.978;2022-07-23T10:17:40;11.13;;;10.17;;
15681;SDS011;7941;50.966;6.978;2022-07-23T10:20:06;11.33;;;10.33;;
15681;SDS011;7941;50.966;6.978;2022-07-23T10:22:37;12.17;;;11.07;;
15681;SDS011;7941;50.966;6.978;2022-07-23T10:25:24;12.93;;;11.67;;
15681;SDS011;7941;50.966;6.978;2022-07-23T10:30:31;11.73;;;10.50;;
15681;SDS011;7941;50.966;6.978;2022-07-23T10:35:47;10.67;;;9.57;;
15681;SDS011;7941;50.966;6.978;2022-07-23T10:38:37;10.65;;;9.60;;
15681;SDS011;7941;50.966;6.978;2022-07-23T10:41:01;10.30;;;9.30;;
15681;SDS011;7941;50.966;6.978;2022-07-23T10:43:27;9.52;;;8.63;;
15681;SDS011;7941;50.966;6.978;2022-07-23T10:45:56;11.85;;;9.57;;
15681;SDS011;7941;50.966;6.978;2022-07-23T10:48:23;9.13;;;8.32;;
15681;SDS011;7941;50.966;6.978;2022-07-23T10:51:12;9.70;;;8.63;;
15681;SDS011;7941;50.966;6.978;2022-07-23T10:56:17;10.70;;;8.30;;
15681;SDS011;7941;50.966;6.978;2022-07-23T10:59:03;7.88;;;6.20;;
15681;SDS011;7941;50.966;6.978;2022-07-23T11:01:34;7.15;;;6.43;;
15681;SDS011;7941;50.966;6.978;2022-07-23T11:04:01;6.47;;;5.97;;
15681;SDS011;7941;50.966;6.978;2022-07-23T11:11:50;8.00;;;7.25;;
15681;SDS011;7941;50.966;6.978;2022-07-23T11:14:17;8.50;;;7.70;;
15681;SDS011;7941;50.966;6.978;2022-07-23T11:17:02;7.75;;;7.05;;
15681;SDS011;7941;50.966;6.978;2022-07-23T11:25:01;8.65;;;7.88;;
15681;SDS011;7941;50.966;6.978;2022-07-23T11:27:40;7.88;;;7.20;;
15681;SDS011;7941;50.966;6.978;2022-07-23T11:30:07;7.40;;;6.70;;
15681;SDS011;7941;50.966;6.978;2022-07-23T11:32:34;6.80;;;6.30;;
15681;SDS011;7941;50.966;6.978;2022-07-23T11:35:03;7.18;;;6.57;;
15681;SDS011;7941;50.966;6.978;2022-07-23T11:39:56;8.05;;;7.35;;
15681;SDS011;7941;50.966;6.978;2022-07-23T11:42:22;7.80;;;7.10;;
15681;SDS011;7941;50.966;6.978;2022-07-23T11:44:49;9.05;;;8.23;;
15681;SDS011;7941;50.966;6.978;2022-07-23T11:47:15;10.52;;;9.63;;
15681;SDS011;7941;50.966;6.978;2022-07-23T11:49:56;10.25;;;9.35;;
15681;SDS011;7941;50.966;6.978;2022-07-23T11:52:23;10.18;;;9.27;;
15681;SDS011;7941;50.966;6.978;2022-07-23T11:57:20;9.13;;;8.20;;
15681;SDS011;7941;50.966;6.978;2022-07-23T11:59:47;9.70;;;8.90;;
15681;SDS011;7941;50.966;6.978;2022-07-23T12:02:14;11.68;;;10.68;;
15681;SDS011;7941;50.966;6.978;2022-07-23T12:07:23;10.88;;;9.88;;
15681;SDS011;7941;50.966;6.978;2022-07-23T12:09:49;27.48;;;24.90;;
15681;SDS011;7941;50.966;6.978;2022-07-23T12:12:15;11.63;;;10.63;;
15681;SDS011;7941;50.966;6.978;2022-07-23T12:14:49;10.98;;;9.80;;
15681;SDS011;7941;50.966;6.978;2022-07-23T12:17:15;9.70;;;8.90;;
15681;SDS011;7941;50.966;6.978;2022-07-23T12:19:41;6.88;;;6.28;;
15681;SDS011;7941;50.966;6.978;2022-07-23T12:22:07;6.82;;;6.13;;
15681;SDS011;7941;50.966;6.978;2022-07-23T12:24:55;7.28;;;6.68;;
15681;SDS011;7941;50.966;6.978;2022-07-23T12:27:21;9.13;;;7.10;;
15681;SDS011;7941;50.966;6.978;2022-07-23T12:29:47;8.88;;;8.10;;
15681;SDS011;7941;50.966;6.978;2022-07-23T12:32:17;8.75;;;6.70;;
15681;SDS011;7941;50.966;6.978;2022-07-23T12:34:44;8.25;;;6.63;;
15681;SDS011;7941;50.966;6.978;2022-07-23T12:37:26;7.82;;;6.90;;
15681;SDS011;7941;50.966;6.978;2022-07-23T12:39:52;7.65;;;6.82;;
15681;SDS011;7941;50.966;6.978;2022-07-23T12:42:18;7.35;;;6.72;;
15681;SDS011;7941;50.966;6.978;2022-07-23T12:45:07;6.32;;;5.72;;
15681;SDS011;7941;50.966;6.978;2022-07-23T12:50:35;6.72;;;6.13;;
15681;SDS011;7941;50.966;6.978;2022-07-23T12:53:04;8.10;;;6.40;;
15681;SDS011;7941;50.966;6.978;2022-07-23T12:55:31;7.05;;;5.25;;
15681;SDS011;7941;50.966;6.978;2022-07-23T12:58:10;6.32;;;5.10;;
15681;SDS011;7941;50.966;6.978;2022-07-23T13:03:24;4.90;;;4.35;;
15681;SDS011;7941;50.966;6.978;2022-07-23T13:05:51;5.07;;;4.68;;
15681;SDS011;7941;50.966;6.978;2022-07-23T13:08:18;5.88;;;5.38;;
15681;SDS011;7941;50.966;6.978;2022-07-23T13:10:44;5.75;;;4.28;;
15681;SDS011;7941;50.966;6.978;2022-07-23T13:13:16;4.13;;;3.30;;
15681;SDS011;7941;50.966;6.978;2022-07-23T13:15:42;4.25;;;3.20;;
15681;SDS011;7941;50.966;6.978;2022-07-23T13:18:09;3.92;;;3.63;;
15681;SDS011;7941;50.966;6.978;2022-07-23T13:20:35;3.30;;;3.00;;
15681;SDS011;7941;50.966;6.978;2022-07-23T13:23:03;4.40;;;3.22;;
15681;SDS011;7941;50.966;6.978;2022-07-23T13:25:29;3.25;;;2.90;;
15681;SDS011;7941;50.966;6.978;2022-07-23T13:27:55;5.30;;;3.20;;
15681;SDS011;7941;50.966;6.978;2022-07-23T13:30:21;4.18;;;3.15;;
15681;SDS011;7941;50.966;6.978;2022-07-23T13:32:48;3.05;;;2.85;;
15681;SDS011;7941;50.966;6.978;2022-07-23T13:35:14;4.22;;;3.38;;
15681;SDS011;7941;50.966;6.978;2022-07-23T13:37:40;3.67;;;3.30;;
15681;SDS011;7941;50.966;6.978;2022-07-23T13:40:07;4.00;;;3.28;;
15681;SDS011;7941;50.966;6.978;2022-07-23T13:42:33;3.47;;;3.20;;
15681;SDS011;7941;50.966;6.978;2022-07-23T13:44:59;3.50;;;3.20;;
15681;SDS011;7941;50.966;6.978;2022-07-23T13:47:25;3.90;;;3.50;;
15681;SDS011;7941;50.966;6.978;2022-07-23T13:49:51;5.20;;;3.50;;
15681;SDS011;7941;50.966;6.978;2022-07-23T13:52:17;3.57;;;2.93;;
15681;SDS011;7941;50.966;6.978;2022-07-23T13:54:43;5.03;;;3.30;;
15681;SDS011;7941;50.966;6.978;2022-07-23T13:57:10;3.77;;;3.27;;
15681;SDS011;7941;50.966;6.978;2022-07-23T13:59:36;3.30;;;3.00;;
15681;SDS011;7941;50.966;6.978;2022-07-23T14:02:03;3.63;;;3.00;;
15681;SDS011;7941;50.966;6.978;2022-07-23T14:04:29;3.43;;;2.90;;
15681;SDS011;7941;50.966;6.978;2022-07-23T14:06:55;3.00;;;2.80;;
15681;SDS011;7941;50.966;6.978;2022-07-23T14:09:22;5.05;;;3.00;;
15681;SDS011;7941;50.966;6.978;2022-07-23T14:11:48;3.80;;;2.97;;
15681;SDS011;7941;50.966;6.978;2022-07-23T14:14:16;3.45;;;2.83;;
15681;SDS011;7941;50.966;6.978;2022-07-23T14:16:42;3.70;;;2.97;;
15681;SDS011;7941;50.966;6.978;2022-07-23T14:19:08;4.68;;;3.20;;
15681;SDS011;7941;50.966;6.978;2022-07-23T14:21:35;3.97;;;2.83;;
15681;SDS011;7941;50.966;6.978;2022-07-23T14:24:01;3.10;;;2.80;;
15681;SDS011;7941;50.966;6.978;2022-07-23T14:26:28;3.40;;;2.88;;
15681;SDS011;7941;50.966;6.978;2022-07-23T14:28:54;2.53;;;2.40;;
15681;SDS011;7941;50.966;6.978;2022-07-23T14:31:20;3.22;;;2.53;;
15681;SDS011;7941;50.966;6.978;2022-07-23T14:33:46;4.18;;;3.13;;
15681;SDS011;7941;50.966;6.978;2022-07-23T14:36:12;4.53;;;2.85;;
15681;SDS011;7941;50.966;6.978;2022-07-23T14:38:38;6.35;;;2.80;;
15681;SDS011;7941;50.966;6.978;2022-07-23T14:41:05;3.83;;;2.95;;
15681;SDS011;7941;50.966;6.978;2022-07-23T14:43:33;5.53;;;3.20;;
15681;SDS011;7941;50.966;6.978;2022-07-23T14:45:59;7.00;;;2.92;;
15681;SDS011;7941;50.966;6.978;2022-07-23T14:48:25;3.22;;;2.70;;
15681;SDS011;7941;50.966;6.978;2022-07-23T14:50:52;3.17;;;2.92;;
15681;SDS011;7941;50.966;6.978;2022-07-23T14:53:18;3.63;;;2.80;;
15681;SDS011;7941;50.966;6.978;2022-07-23T14:55:44;3.80;;;3.08;;
15681;SDS011;7941;50.966;6.978;2022-07-23T14:58:10;3.97;;;3.10;;
15681;SDS011;7941;50.966;6.978;2022-07-23T15:00:36;3.40;;;3.08;;
15681;SDS011;7941;50.966;6.978;2022-07-23T15:03:03;3.15;;;2.63;;
15681;SDS011;7941;50.966;6.978;2022-07-23T15:05:29;4.43;;;3.67;;
15681;SDS011;7941;50.966;6.978;2022-07-23T15:07:55;3.22;;;2.92;;
15681;SDS011;7941;50.966;6.978;2022-07-23T15:10:21;3.67;;;2.90;;
15681;SDS011;7941;50.966;6.978;2022-07-23T15:12:48;3.47;;;2.60;;
15681;SDS011;7941;50.966;6.978;2022-07-23T15:15:14;3.08;;;2.78;;
15681;SDS011;7941;50.966;6.978;2022-07-23T15:17:40;3.80;;;2.80;;
15681;SDS011;7941;50.966;6.978;2022-07-23T15:20:07;3.90;;;2.88;;
15681;SDS011;7941;50.966;6.978;2022-07-23T15:22:33;3.17;;;2.50;;
15681;SDS011;7941;50.966;6.978;2022-07-23T15:24:59;3.90;;;3.22;;
15681;SDS011;7941;50.966;6.978;2022-07-23T15:27:26;3.30;;;3.00;;
15681;SDS011;7941;50.966;6.978;2022-07-23T15:29:53;3.97;;;2.83;;
15681;SDS011;7941;50.966;6.978;2022-07-23T15:32:19;4.50;;;2.72;;
15681;SDS011;7941;50.966;6.978;2022-07-23T15:34:45;3.97;;;3.58;;
15681;SDS011;7941;50.966;6.978;2022-07-23T15:37:11;2.83;;;2.63;;
15681;SDS011;7941;50.966;6.978;2022-07-23T15:39:37;4.45;;;3.05;;
15681;SDS011;7941;50.966;6.978;2022-07-23T15:42:03;3.33;;;2.97;;
15681;SDS011;7941;50.966;6.978;2022-07-23T15:44:30;2.80;;;2.50;;
15681;SDS011;7941;50.966;6.978;2022-07-23T15:46:56;4.33;;;2.47;;
15681;SDS011;7941;50.966;6.978;2022-07-23T15:49:22;3.23;;;2.60;;
15681;SDS011;7941;50.966;6.978;2022-07-23T15:51:48;4.37;;;2.70;;
15681;SDS011;7941;50.966;6.978;2022-07-23T15:54:14;4.47;;;2.97;;
15681;SDS011;7941;50.966;6.978;2022-07-23T15:56:41;3.10;;;2.90;;
15681;SDS011;7941;50.966;6.978;2022-07-23T15:59:07;3.00;;;2.80;;
15681;SDS011;7941;50.966;6.978;2022-07-23T16:01:33;3.10;;;2.70;;